Time;durP1;ratioP1;P1;durP2;ratioP2;P2;SDS_P1;SDS_P2;PMS_P1;PMS_P2;Temp;Humidity;BMP_temperature;BMP_pressure;BME280_temperature;BME280_humidity;BME280_pressure;Samples;Min_cycle;Max_cycle;Signal;HPM_P1;HPM_P2
2023/08/28 00:01:06;;;;;;;7.47;6.78;;;12.40;99.90;;;;;;5085133;28;20213;-81
2023/08/28 00:03:35;;;;;;;8.80;6.68;;;12.50;99.90;;;;;;5085728;28;20176;-81
2023/08/28 00:06:01;;;;;;;8.63;6.60;;;12.60;99.90;;;;;;5091164;28;20199;-81
2023/08/28 00:08:27;;;;;;;7.40;6.70;;;12.50;99.90;;;;;;5090264;28;20174;-81
2023/08/28 00:10:53;;;;;;;9.13;7.03;;;12.50;99.90;;;;;;5092477;28;20213;-81
2023/08/28 00:13:19;;;;;;;8.13;6.68;;;12.60;99.90;;;;;;5090964;28;20197;-81
2023/08/28 00:15:45;;;;;;;8.20;6.40;;;12.60;99.90;;;;;;5091801;28;20312;-81
2023/08/28 00:18:11;;;;;;;10.25;6.65;;;12.60;99.90;;;;;;5094499;28;20685;-81
2023/08/28 00:20:36;;;;;;;6.95;6.25;;;12.60;99.90;;;;;;5095458;28;20228;-81
2023/08/28 00:23:02;;;;;;;7.80;7.05;;;12.60;99.90;;;;;;5092066;28;20201;-81
2023/08/28 00:25:28;;;;;;;9.23;7.68;;;12.50;99.90;;;;;;5092769;28;20182;-82
2023/08/28 00:27:54;;;;;;;10.73;7.60;;;12.30;99.90;;;;;;5092885;28;20194;-81
2023/08/28 00:30:20;;;;;;;7.80;7.10;;;12.30;99.90;;;;;;5091644;28;20202;-81
2023/08/28 00:32:46;;;;;;;8.25;6.57;;;12.30;99.90;;;;;;5093227;28;20188;-81
2023/08/28 00:35:12;;;;;;;7.28;6.53;;;12.30;99.90;;;;;;5091791;28;20181;-82
2023/08/28 00:37:38;;;;;;;7.25;6.55;;;12.30;99.90;;;;;;5092628;28;20205;-81
2023/08/28 00:40:05;;;;;;;8.30;6.68;;;12.30;99.90;;;;;;5090987;28;20197;-81
2023/08/28 00:42:34;;;;;;;6.60;6.00;;;12.30;99.90;;;;;;5092741;28;20198;-81
2023/08/28 00:45:00;;;;;;;7.80;6.13;;;12.20;99.90;;;;;;5092097;28;20174;-82
2023/08/28 00:47:26;;;;;;;8.32;7.00;;;12.20;99.90;;;;;;5091423;28;20173;-81
2023/08/28 00:49:53;;;;;;;6.53;5.90;;;12.10;99.90;;;;;;5092437;28;20213;-81
2023/08/28 00:52:19;;;;;;;8.32;6.32;;;12.10;99.90;;;;;;5093761;28;20605;-80
2023/08/28 00:54:45;;;;;;;7.10;6.45;;;12.10;99.90;;;;;;5085273;28;20181;-82
2023/08/28 00:57:14;;;;;;;8.77;6.53;;;12.00;99.90;;;;;;5083174;28;20186;-81
2023/08/28 00:59:40;;;;;;;8.02;6.32;;;11.90;99.90;;;;;;5082138;28;20250;-81
2023/08/28 01:02:06;;;;;;;7.00;6.00;;;11.90;99.90;;;;;;5084114;28;20255;-80
2023/08/28 01:04:32;;;;;;;7.68;5.85;;;11.90;99.90;;;;;;5086278;28;20174;-81
2023/08/28 01:07:21;;;;;;;7.95;6.43;;;11.90;99.90;;;;;;5085761;28;20173;-80
2023/08/28 01:10:04;;;;;;;11.05;6.70;;;11.80;99.90;;;;;;5087404;28;20556;-81
2023/08/28 01:12:42;;;;;;;6.45;5.60;;;11.80;99.90;;;;;;5088104;28;20170;-80
2023/08/28 01:15:22;;;;;;;6.72;6.07;;;11.80;99.90;;;;;;5088596;28;20158;-80
2023/08/28 01:17:54;;;;;;;9.98;6.97;;;11.80;99.90;;;;;;5086046;28;20177;-82
2023/08/28 01:20:21;;;;;;;6.82;6.22;;;11.70;99.90;;;;;;5086668;28;20206;-81
2023/08/28 01:22:56;;;;;;;9.18;6.47;;;11.70;99.90;;;;;;5087072;28;20232;-80
2023/08/28 01:25:23;;;;;;;7.15;6.45;;;11.70;99.90;;;;;;5087078;28;20187;-81
2023/08/28 01:27:51;;;;;;;8.02;6.40;;;11.70;99.90;;;;;;5086334;28;20177;-81
2023/08/28 01:30:17;;;;;;;8.45;6.25;;;11.70;99.90;;;;;;5086755;28;20201;-81
2023/08/28 01:32:45;;;;;;;7.55;6.10;;;11.60;99.90;;;;;;5085965;28;20771;-82
2023/08/28 01:35:13;;;;;;;9.73;7.30;;;11.60;99.90;;;;;;5087399;28;20177;-81
2023/08/28 01:38:03;;;;;;;7.45;6.75;;;11.50;99.90;;;;;;5087479;28;20182;-80
2023/08/28 01:40:55;;;;;;;8.63;7.65;;;11.50;99.90;;;;;;5087707;28;20281;-81
2023/08/28 01:43:37;;;;;;;9.13;7.20;;;11.50;99.90;;;;;;5087822;28;20201;-82
2023/08/28 01:46:04;;;;;;;7.65;6.68;;;11.40;99.90;;;;;;5086716;28;20295;-82
2023/08/28 01:48:35;;;;;;;8.63;6.78;;;11.40;99.90;;;;;;5087051;28;20170;-81
2023/08/28 01:51:01;;;;;;;8.30;7.50;;;11.40;99.90;;;;;;5085139;28;20218;-81
2023/08/28 01:53:27;;;;;;;7.38;6.68;;;11.40;99.90;;;;;;5085893;28;20667;-80
2023/08/28 01:56:08;;;;;;;8.48;6.53;;;11.50;99.90;;;;;;5085705;28;20188;-80
2023/08/28 01:58:57;;;;;;;7.25;6.38;;;11.40;99.90;;;;;;5085725;28;20186;-80
2023/08/28 02:01:24;;;;;;;8.18;6.63;;;11.40;99.90;;;;;;5085580;28;20217;-80
2023/08/28 02:03:51;;;;;;;8.93;6.68;;;11.40;99.90;;;;;;5084987;28;20197;-81
2023/08/28 02:06:17;;;;;;;8.35;6.68;;;11.40;99.90;;;;;;5085247;28;20174;-81
2023/08/28 02:08:43;;;;;;;7.35;5.90;;;11.40;99.90;;;;;;5085610;28;20549;-80
2023/08/28 02:11:09;;;;;;;7.43;6.32;;;11.30;99.90;;;;;;5085442;28;20206;-81
2023/08/28 02:13:35;;;;;;;7.38;6.28;;;11.30;99.90;;;;;;5086244;28;20177;-81
2023/08/28 02:16:02;;;;;;;6.85;6.15;;;11.30;99.90;;;;;;5089075;28;20166;-81
2023/08/28 02:18:28;;;;;;;9.00;6.43;;;11.20;99.90;;;;;;5087154;28;20177;-81
2023/08/28 02:20:54;;;;;;;7.88;6.00;;;11.20;99.90;;;;;;5087489;28;20233;-81
2023/08/28 02:23:20;;;;;;;8.23;6.80;;;11.10;99.90;;;;;;5088781;28;20252;-80
2023/08/28 02:25:48;;;;;;;10.32;6.78;;;11.20;99.90;;;;;;5087461;28;20231;-81
2023/08/28 02:28:14;;;;;;;7.13;6.43;;;11.10;99.90;;;;;;5083273;28;20176;-81
2023/08/28 02:30:40;;;;;;;8.35;6.38;;;11.10;99.90;;;;;;5084487;28;20605;-81
2023/08/28 02:33:06;;;;;;;10.27;6.82;;;11.10;99.90;;;;;;5086293;28;20242;-81
2023/08/28 02:35:32;;;;;;;7.47;6.28;;;11.10;99.90;;;;;;5084860;28;20274;-81
2023/08/28 02:37:58;;;;;;;9.30;6.45;;;11.00;99.90;;;;;;5085440;28;20219;-81
2023/08/28 02:40:24;;;;;;;7.45;6.45;;;11.00;99.90;;;;;;5086284;28;20193;-81
2023/08/28 02:42:50;;;;;;;10.82;6.20;;;11.10;99.90;;;;;;5081386;28;20196;-81
2023/08/28 02:45:16;;;;;;;8.27;6.85;;;11.10;99.90;;;;;;5078256;28;20249;-81
2023/08/28 02:47:42;;;;;;;8.13;7.32;;;11.10;99.90;;;;;;5077341;28;20177;-81
2023/08/28 02:50:08;;;;;;;7.93;7.13;;;11.10;99.90;;;;;;5065470;28;20632;-81
2023/08/28 02:52:33;;;;;;;7.20;6.50;;;11.10;99.90;;;;;;5057937;28;20182;-80
2023/08/28 02:54:59;;;;;;;8.77;7.20;;;11.10;99.90;;;;;;5059022;28;20218;-80
2023/08/28 02:57:25;;;;;;;10.45;7.30;;;11.10;99.90;;;;;;5060844;28;20178;-81
2023/08/28 02:59:50;;;;;;;9.50;7.13;;;11.00;99.90;;;;;;5065605;28;20209;-81
2023/08/28 03:02:16;;;;;;;9.00;6.47;;;11.00;99.90;;;;;;5067541;28;20198;-81
2023/08/28 03:04:42;;;;;;;6.60;5.63;;;11.00;99.90;;;;;;5066591;28;20196;-81
2023/08/28 03:07:08;;;;;;;7.30;6.60;;;11.00;99.90;;;;;;5066345;28;20209;-80
2023/08/28 03:09:34;;;;;;;10.80;6.57;;;11.00;99.90;;;;;;5068470;28;20723;-80
2023/08/28 03:12:00;;;;;;;7.00;6.30;;;10.90;99.90;;;;;;5067696;28;20194;-81
2023/08/28 03:14:26;;;;;;;7.28;6.35;;;11.00;99.90;;;;;;5073714;28;20230;-80
2023/08/28 03:16:52;;;;;;;10.07;6.97;;;10.90;99.90;;;;;;5072011;28;20191;-80
2023/08/28 03:19:18;;;;;;;10.30;7.78;;;11.00;99.90;;;;;;5064081;28;20197;-80
2023/08/28 03:21:43;;;;;;;7.28;6.53;;;10.90;99.90;;;;;;5077535;28;20670;-80
2023/08/28 03:24:09;;;;;;;7.97;7.22;;;11.00;99.90;;;;;;5077360;28;20245;-80
2023/08/28 03:26:35;;;;;;;9.15;7.25;;;11.00;99.90;;;;;;5076785;28;20178;-81
2023/08/28 03:29:01;;;;;;;10.57;7.43;;;11.00;99.90;;;;;;5076966;28;20231;-81
2023/08/28 03:31:27;;;;;;;7.78;7.05;;;10.90;99.90;;;;;;5078207;28;20174;-81
2023/08/28 03:33:53;;;;;;;8.82;7.03;;;10.90;99.90;;;;;;5077256;28;20189;-81
2023/08/28 03:36:19;;;;;;;9.40;7.70;;;11.00;99.90;;;;;;5076947;28;20181;-81
2023/08/28 03:38:45;;;;;;;18.02;7.90;;;11.00;99.90;;;;;;5076331;28;20613;-80
2023/08/28 03:41:11;;;;;;;8.70;7.80;;;11.00;99.90;;;;;;5078224;28;20182;-80
2023/08/28 03:43:36;;;;;;;9.68;7.38;;;10.90;99.90;;;;;;5078527;28;20575;-80
2023/08/28 03:46:03;;;;;;;8.40;7.60;;;10.80;99.90;;;;;;5073495;28;20178;-81
2023/08/28 03:48:31;;;;;;;9.48;7.15;;;10.80;99.90;;;;;;5074443;28;20331;-81
2023/08/28 03:50:57;;;;;;;8.90;7.85;;;10.80;99.90;;;;;;5072857;28;20225;-81
2023/08/28 03:53:23;;;;;;;9.73;7.90;;;10.80;99.90;;;;;;5072938;28;20182;-80
2023/08/28 03:55:49;;;;;;;9.30;7.32;;;10.70;99.90;;;;;;5073339;28;20231;-80
2023/08/28 03:58:16;;;;;;;10.02;7.82;;;10.60;99.90;;;;;;5074106;28;20169;-81
2023/08/28 04:00:42;;;;;;;10.35;7.25;;;10.60;99.90;;;;;;5074565;28;20224;-81
2023/08/28 04:03:07;;;;;;;9.88;8.38;;;10.60;99.90;;;;;;5072891;28;20197;-81
2023/08/28 04:05:40;;;;;;;10.60;8.13;;;10.60;99.90;;;;;;5074350;28;20634;-81
2023/08/28 04:08:05;;;;;;;8.82;7.72;;;10.60;99.90;;;;;;5072636;28;20177;-80
2023/08/28 04:10:31;;;;;;;9.57;7.45;;;10.60;99.90;;;;;;5074569;28;20189;-80
2023/08/28 04:12:57;;;;;;;8.55;7.68;;;10.60;99.90;;;;;;5074577;28;20279;-80
2023/08/28 04:15:23;;;;;;;9.02;7.22;;;10.60;99.90;;;;;;5073007;28;20537;-81
2023/08/28 04:17:48;;;;;;;7.93;7.13;;;10.40;99.90;;;;;;5073610;28;20186;-81
2023/08/28 04:20:15;;;;;;;7.45;6.70;;;10.40;99.90;;;;;;5073984;28;20746;-81
2023/08/28 04:22:45;;;;;;;8.68;7.72;;;10.40;99.90;;;;;;5073828;28;20337;-80
2023/08/28 04:25:11;;;;;;;7.53;6.82;;;10.40;99.90;;;;;;5075841;28;20657;-80
2023/08/28 04:27:38;;;;;;;8.83;7.43;;;10.30;99.90;;;;;;5075243;28;20178;-80
2023/08/28 04:30:06;;;;;;;9.40;7.15;;;10.30;99.90;;;;;;5074650;28;20200;-80
2023/08/28 04:32:31;;;;;;;7.77;6.90;;;10.30;99.90;;;;;;5075977;28;20178;-81
2023/08/28 04:34:57;;;;;;;9.85;7.60;;;10.30;99.90;;;;;;5074656;28;20178;-81
2023/08/28 04:37:24;;;;;;;7.15;6.43;;;10.30;99.90;;;;;;5074829;28;20181;-80
2023/08/28 04:39:50;;;;;;;10.35;8.27;;;10.30;99.90;;;;;;5074608;28;20201;-80
2023/08/28 04:42:16;;;;;;;8.85;7.13;;;10.40;99.90;;;;;;5074929;28;20297;-81
2023/08/28 04:44:41;;;;;;;7.57;6.78;;;10.40;99.90;;;;;;5078114;28;20173;-81
2023/08/28 04:47:07;;;;;;;9.13;7.57;;;10.40;99.90;;;;;;5078716;28;20166;-81
2023/08/28 04:49:33;;;;;;;8.10;7.18;;;10.40;99.90;;;;;;5077168;28;20577;-81
2023/08/28 04:51:59;;;;;;;8.48;7.40;;;10.40;99.90;;;;;;5079685;28;20182;-81
2023/08/28 04:54:25;;;;;;;8.85;7.93;;;10.50;99.90;;;;;;5082990;28;20237;-80
2023/08/28 04:56:51;;;;;;;8.80;7.53;;;10.50;99.90;;;;;;5082062;28;20188;-81
2023/08/28 04:59:16;;;;;;;7.70;6.90;;;10.50;99.90;;;;;;5084439;28;20173;-81
2023/08/28 05:01:42;;;;;;;8.63;7.68;;;10.50;99.90;;;;;;5083090;28;20221;-81
2023/08/28 05:04:08;;;;;;;7.93;6.88;;;10.50;99.90;;;;;;5079814;28;20178;-81
2023/08/28 05:06:34;;;;;;;8.50;7.10;;;10.60;99.90;;;;;;5079894;28;20174;-81
2023/08/28 05:09:00;;;;;;;7.60;6.90;;;10.70;99.90;;;;;;5079110;28;20169;-80
2023/08/28 05:11:26;;;;;;;8.85;7.20;;;10.70;99.90;;;;;;5079895;28;20351;-81
2023/08/28 05:13:52;;;;;;;9.30;6.82;;;10.70;99.90;;;;;;5081202;28;20174;-81
2023/08/28 05:16:18;;;;;;;8.68;6.78;;;10.70;99.90;;;;;;5081970;28;20173;-81
2023/08/28 05:18:44;;;;;;;8.70;6.90;;;10.70;99.90;;;;;;5082362;28;20177;-80
2023/08/28 05:21:10;;;;;;;9.35;7.68;;;10.70;99.90;;;;;;5083282;28;20281;-80
2023/08/28 05:23:36;;;;;;;9.18;8.27;;;10.70;99.90;;;;;;5083031;28;20284;-81
2023/08/28 05:26:02;;;;;;;8.85;7.82;;;10.70;99.90;;;;;;5080012;28;20299;-81
2023/08/28 05:28:31;;;;;;;14.00;7.57;;;10.70;99.90;;;;;;5077711;28;20174;-81
2023/08/28 05:30:57;;;;;;;9.10;7.57;;;10.70;99.90;;;;;;5077457;28;20190;-81
2023/08/28 05:33:23;;;;;;;8.57;7.70;;;10.70;99.90;;;;;;5078881;28;20184;-81
2023/08/28 05:35:50;;;;;;;8.93;7.35;;;10.70;99.90;;;;;;5078044;28;20185;-81
2023/08/28 05:38:16;;;;;;;9.60;7.57;;;10.80;99.90;;;;;;5077699;28;20182;-80
2023/08/28 05:40:42;;;;;;;8.95;6.93;;;10.80;99.90;;;;;;5078372;28;20331;-81
2023/08/28 05:43:07;;;;;;;9.05;7.45;;;10.90;99.90;;;;;;5078620;28;20266;-81
2023/08/28 05:45:33;;;;;;;9.77;7.45;;;11.00;99.90;;;;;;5078660;28;20178;-81
2023/08/28 05:47:59;;;;;;;9.15;8.10;;;11.10;99.90;;;;;;5079554;28;20188;-81
2023/08/28 05:50:25;;;;;;;10.60;8.65;;;11.20;99.90;;;;;;5079332;28;20216;-80
2023/08/28 05:52:51;;;;;;;11.05;9.82;;;11.30;99.90;;;;;;5079853;28;20165;-80
2023/08/28 05:55:17;;;;;;;10.30;9.10;;;11.30;99.90;;;;;;5080004;28;20247;-81
2023/08/28 05:57:43;;;;;;;10.85;9.13;;;11.40;99.90;;;;;;5079106;28;20189;-81
2023/08/28 06:00:09;;;;;;;12.05;9.55;;;11.40;99.90;;;;;;5079644;28;20384;-81
2023/08/28 06:02:35;;;;;;;11.50;10.30;;;11.40;99.90;;;;;;5078824;28;20198;-80
2023/08/28 06:05:01;;;;;;;14.50;10.50;;;11.40;99.90;;;;;;5077811;28;20223;-80
2023/08/28 06:07:26;;;;;;;11.95;9.60;;;11.50;99.90;;;;;;5075590;28;20209;-78
2023/08/28 06:09:52;;;;;;;10.73;9.45;;;11.50;99.90;;;;;;5076293;28;20217;-80
2023/08/28 06:12:18;;;;;;;17.90;11.95;;;11.50;99.90;;;;;;5078206;28;20178;-79
2023/08/28 06:14:44;;;;;;;12.88;10.93;;;11.50;99.90;;;;;;5075942;28;20201;-79
2023/08/28 06:17:10;;;;;;;19.15;12.65;;;11.50;99.90;;;;;;5077487;28;20169;-78
2023/08/28 06:19:35;;;;;;;19.35;13.52;;;11.70;99.90;;;;;;5076307;28;20304;-79
2023/08/28 06:22:04;;;;;;;21.67;13.60;;;11.70;99.90;;;;;;5075776;28;20194;-79
2023/08/28 06:24:31;;;;;;;15.63;12.77;;;11.90;99.90;;;;;;5076513;28;20178;-78
2023/08/28 06:26:57;;;;;;;19.67;13.50;;;12.10;99.90;;;;;;5075791;28;20634;-79
2023/08/28 06:29:23;;;;;;;21.90;14.52;;;12.20;99.90;;;;;;5075447;28;20202;-79
2023/08/28 06:31:49;;;;;;;16.20;13.48;;;12.30;99.90;;;;;;5074900;28;20186;-78
2023/08/28 06:34:15;;;;;;;16.98;13.95;;;12.40;99.90;;;;;;5076566;28;20651;-78
2023/08/28 06:36:41;;;;;;;20.85;15.15;;;12.50;99.90;;;;;;5075123;28;20186;-79
2023/08/28 06:39:07;;;;;;;22.42;16.52;;;12.70;99.90;;;;;;5074503;28;20178;-78
2023/08/28 06:41:33;;;;;;;22.08;15.15;;;12.70;99.90;;;;;;5074782;28;20177;-79
2023/08/28 06:44:00;;;;;;;19.85;15.55;;;12.80;99.90;;;;;;5075292;28;20557;-79
2023/08/28 06:46:26;;;;;;;20.50;16.80;;;13.10;99.90;;;;;;5076359;28;20169;-79
2023/08/28 06:48:52;;;;;;;23.15;17.55;;;13.20;99.90;;;;;;5076373;28;20174;-79
2023/08/28 06:51:19;;;;;;;22.40;17.10;;;13.30;99.90;;;;;;5074981;28;20233;-78
2023/08/28 06:53:45;;;;;;;21.50;17.05;;;13.40;99.90;;;;;;5077706;28;20697;-78
2023/08/28 06:56:11;;;;;;;21.13;16.58;;;13.50;99.90;;;;;;5075094;28;20209;-79
2023/08/28 06:58:37;;;;;;;18.85;16.85;;;13.60;99.90;;;;;;5075079;28;20201;-79
2023/08/28 07:01:03;;;;;;;23.67;18.15;;;13.70;99.90;;;;;;5074573;28;20206;-78
2023/08/28 07:03:29;;;;;;;17.73;15.13;;;13.70;99.90;;;;;;5075283;28;20567;-79
2023/08/28 07:05:55;;;;;;;20.17;15.40;;;13.70;99.90;;;;;;5076466;28;20244;-79
2023/08/28 07:08:21;;;;;;;18.00;15.60;;;13.80;99.90;;;;;;5074853;28;20181;-78
2023/08/28 07:10:47;;;;;;;22.17;16.33;;;13.90;99.90;;;;;;5075094;28;20242;-78
2023/08/28 07:13:12;;;;;;;18.80;14.95;;;14.00;99.90;;;;;;5073966;28;20646;-79
2023/08/28 07:15:41;;;;;;;18.77;14.32;;;14.20;99.90;;;;;;5075994;28;20213;-79
2023/08/28 07:18:07;;;;;;;19.55;14.65;;;14.20;99.90;;;;;;5074656;28;20184;-79
2023/08/28 07:20:32;;;;;;;17.75;13.98;;;14.30;99.90;;;;;;5074798;28;20202;-78
2023/08/28 07:22:59;;;;;;;17.48;14.05;;;14.30;99.90;;;;;;5073914;28;20198;-77
2023/08/28 07:25:24;;;;;;;18.50;15.48;;;14.40;99.90;;;;;;5075225;28;20166;-78
2023/08/28 07:27:51;;;;;;;17.85;15.27;;;14.50;99.90;;;;;;5074375;28;20267;-79
2023/08/28 07:30:17;;;;;;;19.70;16.27;;;14.60;99.90;;;;;;5075302;28;20653;-78
2023/08/28 07:32:43;;;;;;;19.08;15.32;;;14.60;99.90;;;;;;5074915;28;20180;-78
2023/08/28 07:35:09;;;;;;;19.20;15.43;;;14.50;99.90;;;;;;5075474;28;20177;-79
2023/08/28 07:37:36;;;;;;;19.02;15.10;;;14.50;99.90;;;;;;5075152;28;20201;-78
2023/08/28 07:40:03;;;;;;;21.80;15.55;;;14.40;99.90;;;;;;5074827;28;20204;-78
2023/08/28 07:42:29;;;;;;;24.25;16.83;;;14.40;99.90;;;;;;5075590;28;20220;-78
2023/08/28 07:44:55;;;;;;;25.58;17.48;;;14.50;99.90;;;;;;5077063;28;20177;-78
2023/08/28 07:47:21;;;;;;;24.75;16.80;;;14.60;99.90;;;;;;5073748;28;20173;-78
2023/08/28 07:49:47;;;;;;;23.75;15.85;;;14.70;99.90;;;;;;5074927;28;20213;-77
2023/08/28 07:52:12;;;;;;;26.80;17.60;;;14.80;99.90;;;;;;5074871;28;20638;-78
2023/08/28 07:54:38;;;;;;;26.92;16.55;;;15.00;99.90;;;;;;5073210;28;20231;-77
2023/08/28 07:57:04;;;;;;;22.77;16.08;;;15.20;99.90;;;;;;5074092;28;20173;-78
2023/08/28 07:59:30;;;;;;;23.08;16.55;;;15.40;99.90;;;;;;5074197;28;20197;-78
2023/08/28 08:01:57;;;;;;;22.35;15.32;;;15.40;99.90;;;;;;5072907;28;20610;-78
2023/08/28 08:04:24;;;;;;;24.38;15.98;;;15.40;99.90;;;;;;5072651;28;20178;-78
2023/08/28 08:06:50;;;;;;;22.50;15.60;;;15.50;99.90;;;;;;5072555;28;20169;-78
2023/08/28 08:09:16;;;;;;;23.75;15.10;;;15.70;99.90;;;;;;5072319;28;20595;-77
2023/08/28 08:11:42;;;;;;;18.92;13.90;;;15.90;99.90;;;;;;5072469;28;20590;-78
2023/08/28 08:14:07;;;;;;;21.00;14.77;;;16.20;99.90;;;;;;5073602;28;20257;-78
2023/08/28 08:16:33;;;;;;;20.23;14.40;;;16.20;99.90;;;;;;5072259;28;20265;-78
2023/08/28 08:18:59;;;;;;;21.00;12.88;;;16.30;99.90;;;;;;5072113;28;20196;-77
2023/08/28 08:21:25;;;;;;;21.75;13.38;;;16.30;99.90;;;;;;5072337;28;20240;-78
2023/08/28 08:23:51;;;;;;;26.05;13.45;;;16.40;99.90;;;;;;5073213;28;20170;-77
2023/08/28 08:26:16;;;;;;;19.25;12.90;;;16.40;99.90;;;;;;5075279;28;20178;-78
2023/08/28 08:28:43;;;;;;;25.58;13.23;;;16.60;99.90;;;;;;5076168;28;20262;-78
2023/08/28 08:31:08;;;;;;;23.48;13.02;;;16.90;99.90;;;;;;5077686;28;20559;-78
2023/08/28 08:33:34;;;;;;;19.35;12.13;;;16.90;99.90;;;;;;5077580;28;20172;-78
2023/08/28 08:36:00;;;;;;;23.17;12.77;;;17.00;99.90;;;;;;5077044;28;20261;-78
2023/08/28 08:38:25;;;;;;;17.55;10.93;;;17.20;99.90;;;;;;5077127;28;20261;-77
2023/08/28 08:40:53;;;;;;;15.00;9.93;;;17.20;99.90;;;;;;5076958;28;20686;-78
2023/08/28 08:43:19;;;;;;;18.08;10.20;;;17.10;99.90;;;;;;5075706;28;20240;-78
2023/08/28 08:45:47;;;;;;;16.25;10.35;;;17.30;99.90;;;;;;5077308;28;20219;-78
2023/08/28 08:48:17;;;;;;;16.90;9.15;;;17.40;99.90;;;;;;5075781;28;20631;-78
2023/08/28 08:50:46;;;;;;;16.95;9.40;;;17.40;99.90;;;;;;5075530;28;20225;-77
2023/08/28 08:53:43;;;;;;;14.35;8.77;;;17.40;99.90;;;;;;5076715;28;20174;-77
2023/08/28 08:56:12;;;;;;;16.45;9.85;;;17.60;99.90;;;;;;5076296;28;20257;-78
2023/08/28 08:58:40;;;;;;;16.08;9.43;;;17.70;99.90;;;;;;5075845;28;20646;-78
2023/08/28 09:01:07;;;;;;;14.98;8.65;;;17.70;99.90;;;;;;5075904;28;20288;-79
2023/08/28 09:03:33;;;;;;;13.75;8.30;;;17.90;99.90;;;;;;5078555;28;20204;-79
2023/08/28 09:05:59;;;;;;;10.73;7.30;;;17.90;99.90;;;;;;5080178;28;20165;-80
2023/08/28 09:08:26;;;;;;;14.13;7.53;;;17.80;99.90;;;;;;5079116;28;20185;-79
2023/08/28 09:10:51;;;;;;;13.18;7.10;;;17.80;99.90;;;;;;5078386;28;20201;-78
2023/08/28 09:13:17;;;;;;;12.00;6.85;;;17.90;99.90;;;;;;5076406;28;20178;-79
2023/08/28 09:15:43;;;;;;;8.90;5.55;;;17.90;99.90;;;;;;5079748;28;20225;-79
2023/08/28 09:18:09;;;;;;;8.15;4.75;;;18.20;99.90;;;;;;5076606;28;20181;-78
2023/08/28 09:20:34;;;;;;;7.85;5.10;;;18.40;99.90;;;;;;5075576;28;20209;-77
2023/08/28 09:23:00;;;;;;;7.28;5.35;;;18.30;99.90;;;;;;5075575;28;20663;-77
2023/08/28 09:25:29;;;;;;;8.13;6.32;;;18.30;99.90;;;;;;5075236;28;20193;-76
2023/08/28 09:27:56;;;;;;;9.52;6.28;;;18.20;99.90;;;;;;5077151;28;20174;-77
2023/08/28 09:30:37;;;;;;;10.32;5.65;;;18.00;98.20;;;;;;5076399;28;20190;-78
2023/08/28 09:33:05;;;;;;;9.75;4.90;;;17.90;99.90;;;;;;5080188;28;20610;-80
2023/08/28 09:35:41;;;;;;;10.95;5.30;;;17.90;99.90;;;;;;5084135;28;20185;-80
2023/08/28 09:38:08;;;;;;;8.57;4.68;;;17.90;99.90;;;;;;5076487;28;20169;-78
2023/08/28 09:40:39;;;;;;;7.07;4.38;;;18.00;99.90;;;;;;5075190;28;20293;-78
2023/08/28 09:43:16;;;;;;;8.93;5.50;;;18.00;99.90;;;;;;5075621;28;20242;-78
2023/08/28 09:45:44;;;;;;;7.53;5.28;;;17.90;99.90;;;;;;5076346;28;20205;-79
2023/08/28 09:48:11;;;;;;;7.10;4.55;;;17.80;99.90;;;;;;5076526;28;20186;-79
2023/08/28 09:50:41;;;;;;;7.97;4.82;;;17.80;99.90;;;;;;5076363;28;20209;-79
2023/08/28 09:53:15;;;;;;;11.95;6.00;;;17.80;99.90;;;;;;5078231;28;20276;-78
2023/08/28 09:55:50;;;;;;;7.82;4.72;;;17.80;99.90;;;;;;5076965;28;20177;-79
2023/08/28 09:58:16;;;;;;;10.93;5.88;;;17.90;6.40;;;;;;5075427;28;20191;-78
2023/08/28 10:00:43;;;;;;;8.20;4.30;;;17.90;68.40;;;;;;5074249;28;20205;-78
2023/08/28 10:03:10;;;;;;;9.18;4.55;;;17.90;99.90;;;;;;5074503;28;20198;-78
2023/08/28 10:05:43;;;;;;;7.10;4.25;;;17.80;99.90;;;;;;5074565;28;20181;-78
2023/08/28 10:08:12;;;;;;;5.18;3.95;;;17.80;99.90;;;;;;5058613;28;20178;-79
2023/08/28 10:10:40;;;;;;;6.50;4.43;;;18.00;99.90;;;;;;5076613;28;20693;-78
2023/08/28 10:13:13;;;;;;;7.15;4.07;;;18.10;99.90;;;;;;5075286;28;20209;-78
2023/08/28 10:16:11;;;;;;;6.05;4.00;;;18.20;99.90;;;;;;5076374;28;20178;-78
2023/08/28 10:19:09;;;;;;;4.68;3.80;;;18.10;99.90;;;;;;5076667;28;20284;-78
2023/08/28 10:21:35;;;;;;;6.32;3.97;;;18.20;99.90;;;;;;5077012;28;20190;-79
2023/08/28 10:24:02;;;;;;;4.75;3.55;;;18.30;99.90;;;;;;5076007;28;20205;-79
2023/08/28 10:26:29;;;;;;;6.40;3.80;;;18.40;1.00;;;;;;5075871;28;20543;-78
2023/08/28 10:28:55;;;;;;;7.75;3.58;;;18.50;18.80;;;;;;5076107;28;20180;-80
2023/08/28 10:31:30;;;;;;;5.55;3.67;;;18.50;1.00;;;;;;5077044;28;20189;-79
2023/08/28 10:33:56;;;;;;;5.43;3.47;;;18.60;1.00;;;;;;5078528;28;20630;-79
2023/08/28 10:36:28;;;;;;;9.48;3.88;;;18.60;1.00;;;;;;5076578;28;20237;-78
2023/08/28 10:38:55;;;;;;;4.85;3.25;;;18.70;1.00;;;;;;5076949;28;20154;-78
2023/08/28 10:41:24;;;;;;;6.32;3.20;;;18.60;1.00;;;;;;5076007;28;20243;-78
2023/08/28 10:43:51;;;;;;;8.23;3.65;;;18.60;1.00;;;;;;5076344;28;20202;-79
2023/08/28 10:46:18;;;;;;;5.15;3.85;;;18.70;1.00;;;;;;5075541;28;20170;-80
2023/08/28 10:48:46;;;;;;;4.88;3.28;;;18.80;1.00;;;;;;5074734;28;20203;-79
2023/08/28 10:51:12;;;;;;;3.80;3.10;;;18.80;1.00;;;;;;5076122;28;20212;-79
2023/08/28 10:53:43;;;;;;;4.75;3.50;;;18.90;1.00;;;;;;5075369;28;20193;-79
2023/08/28 10:56:11;;;;;;;6.32;3.20;;;19.00;1.00;;;;;;5075484;28;20166;-79
2023/08/28 10:58:37;;;;;;;4.43;3.30;;;19.00;67.80;;;;;;5074810;28;20664;-79
2023/08/28 11:01:14;;;;;;;8.57;3.63;;;19.10;1.00;;;;;;5074783;28;20206;-79
2023/08/28 11:03:51;;;;;;;6.20;4.13;;;19.20;99.90;;;;;;5076124;28;20181;-79
2023/08/28 11:06:42;;;;;;;8.68;4.05;;;19.30;99.90;;;;;;5076820;28;20174;-80
2023/08/28 11:09:27;;;;;;;5.95;3.72;;;19.20;1.00;;;;;;5077944;28;20234;-79
2023/08/28 11:12:15;;;;;;;3.28;2.85;;;19.00;1.00;;;;;;5076929;28;20181;-80
2023/08/28 11:14:56;;;;;;;5.15;3.20;;;18.90;99.90;;;;;;5075683;28;20196;-80
2023/08/28 11:17:22;;;;;;;4.85;2.92;;;18.80;99.90;;;;;;5075909;28;20181;-80
2023/08/28 11:19:54;;;;;;;4.07;2.97;;;18.90;1.00;;;;;;5075350;28;20210;-79
2023/08/28 11:22:29;;;;;;;4.45;3.47;;;18.90;1.00;;;;;;5075698;28;20198;-79
2023/08/28 11:24:56;;;;;;;4.95;3.65;;;19.00;1.00;;;;;;5075249;28;20174;-79
2023/08/28 11:27:40;;;;;;;4.68;3.33;;;19.00;99.90;;;;;;5076667;28;20248;-80
2023/08/28 11:30:07;;;;;;;5.57;3.58;;;18.90;99.90;;;;;;5075347;28;20285;-79
2023/08/28 11:32:35;;;;;;;3.95;3.40;;;18.90;99.90;;;;;;5075523;28;20182;-80
2023/08/28 11:35:05;;;;;;;4.03;3.53;;;19.00;1.00;;;;;;5075228;28;20178;-80
2023/08/28 11:37:33;;;;;;;6.20;4.18;;;19.00;1.00;;;;;;5075817;28;20170;-80
2023/08/28 11:39:59;;;;;;;6.82;3.53;;;18.90;1.00;;;;;;5075344;28;20319;-79
2023/08/28 11:42:28;;;;;;;3.78;3.03;;;18.90;1.00;;;;;;5075298;28;20194;-80
2023/08/28 11:44:54;;;;;;;3.88;3.13;;;18.90;1.00;;;;;;5076035;28;20177;-80
2023/08/28 11:47:28;;;;;;;6.68;3.40;;;19.00;1.00;;;;;;5075419;28;20184;-80
2023/08/28 11:49:55;;;;;;;5.53;3.33;;;19.10;1.00;;;;;;5075262;28;20251;-80
2023/08/28 11:52:22;;;;;;;3.90;3.15;;;19.00;1.00;;;;;;5075970;28;20185;-80
2023/08/28 11:54:48;;;;;;;3.55;3.25;;;18.90;99.90;;;;;;5075628;28;20189;-79
2023/08/28 11:57:18;;;;;;;5.43;3.78;;;18.90;1.00;;;;;;5077087;28;20180;-80
2023/08/28 11:59:45;;;;;;;7.97;3.60;;;19.00;99.90;;;;;;5075414;28;20246;-80
2023/08/28 12:02:13;;;;;;;4.80;3.20;;;19.00;99.90;;;;;;5075450;28;20194;-80
2023/08/28 12:04:42;;;;;;;4.68;4.05;;;19.00;1.00;;;;;;5076069;28;20265;-80
2023/08/28 12:07:19;;;;;;;5.00;3.60;;;19.00;1.00;;;;;;5076668;28;20165;-80
2023/08/28 12:09:47;;;;;;;3.50;3.20;;;19.00;99.90;;;;;;5074320;28;20194;-79
2023/08/28 12:12:14;;;;;;;4.07;3.67;;;19.20;99.90;;;;;;5074082;28;20187;-79
2023/08/28 12:14:45;;;;;;;3.63;2.97;;;19.40;1.00;;;;;;5073283;28;20238;-78
2023/08/28 12:17:26;;;;;;;3.45;2.95;;;19.80;1.00;;;;;;5073674;28;20539;-78
2023/08/28 12:19:52;;;;;;;6.72;3.65;;;20.20;99.90;;;;;;5073936;28;20205;-79
2023/08/28 12:22:21;;;;;;;5.32;3.15;;;20.60;1.00;;;;;;5074797;28;20212;-79
2023/08/28 12:24:49;;;;;;;4.15;3.10;;;20.90;99.90;;;;;;5072487;28;20174;-78
2023/08/28 12:27:17;;;;;;;5.40;3.20;;;21.30;99.90;;;;;;5072481;28;20178;-79
2023/08/28 12:29:43;;;;;;;4.18;3.08;;;21.40;99.90;;;;;;5074193;28;20246;-79
2023/08/28 12:32:18;;;;;;;5.65;3.30;;;21.30;99.90;;;;;;5072903;28;20178;-78
2023/08/28 12:34:47;;;;;;;3.35;2.88;;;21.00;1.00;;;;;;5074058;28;20614;-78
2023/08/28 12:37:15;;;;;;;4.90;3.28;;;20.70;1.00;;;;;;5074051;28;20174;-78
2023/08/28 12:39:51;;;;;;;4.13;3.72;;;20.70;99.90;;;;;;5074080;28;20186;-79
2023/08/28 12:42:18;;;;;;;5.40;3.38;;;20.50;99.90;;;;;;5073141;28;20202;-78
2023/08/28 12:44:44;;;;;;;4.07;3.40;;;20.30;1.00;;;;;;5074135;28;20169;-78
2023/08/28 12:47:14;;;;;;;4.10;3.60;;;20.00;1.00;;;;;;5072844;28;20173;-79